createdAt,value
2022-09-12T08:44:29.446Z,16.10
2022-09-12T08:47:17.059Z,16.40
2022-09-12T08:49:53.804Z,16.40
2022-09-12T08:52:26.483Z,16.40
2022-09-12T08:59:55.085Z,16.50
2022-09-12T09:02:43.623Z,16.80
2022-09-12T09:05:20.789Z,16.80
2022-09-12T09:08:13.825Z,17.00
2022-09-12T09:10:50.280Z,17.20
2022-09-12T09:13:47.468Z,17.30
2022-09-12T09:16:23.359Z,17.40
2022-09-12T09:18:53.769Z,17.40
2022-09-12T09:21:28.758Z,17.80
2022-09-12T09:24:03.204Z,17.30
2022-09-12T09:26:42.165Z,17.70
2022-09-12T09:29:18.756Z,17.40
2022-09-12T09:39:42.828Z,17.50
2022-09-12T09:42:19.912Z,17.80
2022-09-12T09:44:49.267Z,18.00
2022-09-12T09:47:19.586Z,18.00
2022-09-12T09:49:48.281Z,18.10
2022-09-12T10:08:03.193Z,18.10
2022-09-12T10:48:31.781Z,18.70
2022-09-12T17:59:33.107Z,21.40
2022-09-12T18:02:16.105Z,19.30
2022-09-12T18:04:46.383Z,19.00
2022-09-12T18:07:18.108Z,19.00
2022-09-12T18:09:47.760Z,18.90
2022-09-12T18:12:16.474Z,18.80
2022-09-12T18:14:44.525Z,18.70
2022-09-12T18:17:12.656Z,18.70
2022-09-12T18:19:40.555Z,18.60
2022-09-12T18:22:09.414Z,18.70
2022-09-12T18:24:39.643Z,18.50
2022-09-12T18:27:07.549Z,18.50
2022-09-12T18:29:35.455Z,18.50
2022-09-12T18:32:03.816Z,18.40
2022-09-12T18:34:33.341Z,18.30
2022-09-12T18:37:05.066Z,18.30
2022-09-12T18:39:32.953Z,18.30
2022-09-12T18:42:02.387Z,18.10
2022-09-12T18:44:30.327Z,18.00
2022-09-12T18:46:58.262Z,18.00
2022-09-12T18:49:26.326Z,17.90
2022-09-12T18:51:54.226Z,17.90
2022-09-12T18:54:22.423Z,17.90
2022-09-12T18:56:50.321Z,17.90
2022-09-12T18:59:19.780Z,17.80
2022-09-12T19:01:48.184Z,17.80
2022-09-12T19:04:16.587Z,17.80
2022-09-12T19:06:46.977Z,17.70
2022-09-12T19:09:16.896Z,17.80
2022-09-12T19:11:49.739Z,17.50
2022-09-12T19:14:22.511Z,17.50
2022-09-12T19:16:50.764Z,17.40
2022-09-12T19:19:18.881Z,17.50
2022-09-12T19:21:47.442Z,17.50
2022-09-12T19:24:16.497Z,17.40
2022-09-12T19:26:44.800Z,17.20
2022-09-12T19:29:14.356Z,17.10
2022-09-12T19:31:44.243Z,17.10
2022-09-12T19:34:13.274Z,16.90
2022-09-12T19:36:45.301Z,16.80
2022-09-12T19:44:11.394Z,16.50
2022-09-12T19:46:39.556Z,16.50
2022-09-12T19:49:10.524Z,16.50
2022-09-12T19:51:38.631Z,16.40
2022-09-12T19:54:07.663Z,16.40
2022-09-12T19:56:35.772Z,16.30
2022-09-12T19:59:03.806Z,16.20
2022-09-12T20:01:32.682Z,16.20
2022-09-12T20:04:00.712Z,16.20
2022-09-12T20:06:30.166Z,16.10
2022-09-12T20:08:58.809Z,16.10
2022-09-12T20:11:26.917Z,16.10
2022-09-12T20:13:55.188Z,16.20
2022-09-12T20:16:25.542Z,16.20
2022-09-12T20:18:55.456Z,16.30
2022-09-12T20:21:30.883Z,16.40
2022-09-12T20:24:03.318Z,16.40
2022-09-12T20:26:31.907Z,16.50
2022-09-12T20:29:00.008Z,16.50
2022-09-12T20:31:28.142Z,16.60
2022-09-12T20:33:56.645Z,16.70
2022-09-12T20:36:24.914Z,16.60
2022-09-12T20:38:55.673Z,16.60
2022-09-12T20:41:26.276Z,16.60
2022-09-12T20:43:55.444Z,16.50
2022-09-12T20:46:24.793Z,16.50
2022-09-12T20:48:53.111Z,16.40
2022-09-12T20:51:21.868Z,16.40
2022-09-12T20:53:54.369Z,16.30
2022-09-12T20:56:24.742Z,16.20
2022-09-12T20:58:52.666Z,16.20
2022-09-12T21:01:21.400Z,16.20
2022-09-12T21:03:50.034Z,16.10
2022-09-12T21:06:18.930Z,16.10
2022-09-12T21:08:47.614Z,16.10
2022-09-12T21:11:16.128Z,16.00
2022-09-12T21:13:45.718Z,16.00
2022-09-12T21:16:15.474Z,16.00
2022-09-12T21:18:43.631Z,15.90
2022-09-12T21:21:13.112Z,15.80
2022-09-12T21:23:42.813Z,15.90
2022-09-12T21:26:11.481Z,15.70
2022-09-12T21:28:39.452Z,15.70
2022-09-12T21:31:09.156Z,15.70
2022-09-12T21:33:37.235Z,15.60
2022-09-12T21:36:06.423Z,15.50
2022-09-12T21:38:34.447Z,15.50
2022-09-12T21:41:07.888Z,15.50
2022-09-12T21:43:36.325Z,15.40
2022-09-12T21:46:05.672Z,15.40
2022-09-12T21:48:35.318Z,15.40
2022-09-12T21:51:04.289Z,15.40
2022-09-12T21:53:32.309Z,15.40
2022-09-12T21:56:04.575Z,15.40
2022-09-12T21:58:32.726Z,15.40
2022-09-12T22:01:01.412Z,15.40
2022-09-12T22:03:30.301Z,15.40
2022-09-12T22:06:01.602Z,15.40
2022-09-12T22:08:30.954Z,15.50
2022-09-12T22:11:00.830Z,15.50
2022-09-12T22:13:32.000Z,15.40
2022-09-12T22:16:00.414Z,15.40
2022-09-12T22:18:28.380Z,15.40
2022-09-12T22:21:02.436Z,15.40
2022-09-12T22:23:47.805Z,15.40
2022-09-12T22:26:16.106Z,15.40
2022-09-12T22:28:45.407Z,15.30
2022-09-12T22:31:14.681Z,15.30
2022-09-12T22:33:42.792Z,15.20
2022-09-12T22:36:12.496Z,15.20
2022-09-12T22:38:40.655Z,15.10
2022-09-12T22:41:10.789Z,15.10
2022-09-12T22:43:38.972Z,15.10
2022-09-12T22:46:08.068Z,15.00
2022-09-12T22:48:36.400Z,14.90
2022-09-12T22:51:04.844Z,14.90
2022-09-12T22:53:34.636Z,14.90
2022-09-12T22:56:04.909Z,14.90
2022-09-12T22:58:32.973Z,14.80
